sensor_id;sensor_type;location;lat;lon;timestamp;P1;durP1;ratioP1;P2;durP2;ratioP2
62796;SDS011;48839;48.546;-4.178;2022-09-23T00:01:19;16.52;;;9.73;;
62796;SDS011;48839;48.546;-4.178;2022-09-23T00:03:45;13.65;;;10.02;;
62796;SDS011;48839;48.546;-4.178;2022-09-23T00:08:40;16.83;;;10.65;;
62796;SDS011;48839;48.546;-4.178;2022-09-23T00:13:45;17.15;;;11.15;;
62796;SDS011;48839;48.546;-4.178;2022-09-23T00:16:13;18.42;;;12.25;;
62796;SDS011;48839;48.546;-4.178;2022-09-23T00:18:40;19.85;;;12.13;;
62796;SDS011;48839;48.546;-4.178;2022-09-23T00:21:08;24.15;;;13.27;;
62796;SDS011;48839;48.546;-4.178;2022-09-23T00:23:35;23.48;;;13.45;;
62796;SDS011;48839;48.546;-4.178;2022-09-23T00:26:02;21.45;;;12.50;;
62796;SDS011;48839;48.546;-4.178;2022-09-23T00:28:28;20.95;;;12.93;;
62796;SDS011;48839;48.546;-4.178;2022-09-23T00:30:55;21.13;;;12.32;;
62796;SDS011;48839;48.546;-4.178;2022-09-23T00:33:20;24.17;;;14.70;;
62796;SDS011;48839;48.546;-4.178;2022-09-23T00:35:46;20.77;;;12.85;;
62796;SDS011;48839;48.546;-4.178;2022-09-23T00:38:13;21.00;;;12.95;;
62796;SDS011;48839;48.546;-4.178;2022-09-23T00:40:43;19.65;;;12.80;;
62796;SDS011;48839;48.546;-4.178;2022-09-23T00:43:13;20.25;;;12.63;;
62796;SDS011;48839;48.546;-4.178;2022-09-23T00:45:39;21.95;;;13.25;;
62796;SDS011;48839;48.546;-4.178;2022-09-23T00:48:07;20.38;;;12.32;;
62796;SDS011;48839;48.546;-4.178;2022-09-23T00:50:37;21.70;;;13.75;;
62796;SDS011;48839;48.546;-4.178;2022-09-23T00:53:06;22.38;;;13.50;;
62796;SDS011;48839;48.546;-4.178;2022-09-23T00:55:35;21.65;;;12.98;;
62796;SDS011;48839;48.546;-4.178;2022-09-23T00:58:04;22.20;;;13.48;;
62796;SDS011;48839;48.546;-4.178;2022-09-23T01:00:32;20.77;;;14.57;;
62796;SDS011;48839;48.546;-4.178;2022-09-23T01:02:59;23.48;;;13.25;;
62796;SDS011;48839;48.546;-4.178;2022-09-23T01:05:25;24.85;;;14.55;;
62796;SDS011;48839;48.546;-4.178;2022-09-23T01:07:52;21.45;;;14.52;;
62796;SDS011;48839;48.546;-4.178;2022-09-23T01:10:19;24.17;;;14.93;;
62796;SDS011;48839;48.546;-4.178;2022-09-23T01:15:49;23.08;;;14.98;;
62796;SDS011;48839;48.546;-4.178;2022-09-23T01:18:21;26.60;;;15.38;;
62796;SDS011;48839;48.546;-4.178;2022-09-23T01:23:28;28.40;;;16.17;;
62796;SDS011;48839;48.546;-4.178;2022-09-23T01:28:43;27.80;;;16.65;;
62796;SDS011;48839;48.546;-4.178;2022-09-23T01:39:37;34.35;;;17.88;;
62796;SDS011;48839;48.546;-4.178;2022-09-23T01:41:57;29.42;;;17.08;;
62796;SDS011;48839;48.546;-4.178;2022-09-23T01:49:44;29.80;;;16.63;;
62796;SDS011;48839;48.546;-4.178;2022-09-23T01:52:23;29.35;;;16.65;;
62796;SDS011;48839;48.546;-4.178;2022-09-23T01:59:51;29.25;;;16.75;;
62796;SDS011;48839;48.546;-4.178;2022-09-23T02:02:35;28.80;;;16.48;;
62796;SDS011;48839;48.546;-4.178;2022-09-23T02:05:12;24.75;;;15.85;;
62796;SDS011;48839;48.546;-4.178;2022-09-23T02:10:12;30.48;;;17.65;;
62796;SDS011;48839;48.546;-4.178;2022-09-23T02:12:39;27.73;;;16.45;;
62796;SDS011;48839;48.546;-4.178;2022-09-23T02:15:10;29.90;;;17.52;;
62796;SDS011;48839;48.546;-4.178;2022-09-23T02:17:43;24.52;;;16.20;;
62796;SDS011;48839;48.546;-4.178;2022-09-23T02:20:12;29.38;;;16.65;;
62796;SDS011;48839;48.546;-4.178;2022-09-23T02:22:41;28.45;;;15.57;;
62796;SDS011;48839;48.546;-4.178;2022-09-23T02:25:11;25.30;;;16.13;;
62796;SDS011;48839;48.546;-4.178;2022-09-23T02:40:33;27.50;;;15.65;;
62796;SDS011;48839;48.546;-4.178;2022-09-23T02:45:27;24.48;;;14.45;;
62796;SDS011;48839;48.546;-4.178;2022-09-23T02:47:56;23.25;;;14.05;;
62796;SDS011;48839;48.546;-4.178;2022-09-23T02:50:24;24.55;;;14.57;;
62796;SDS011;48839;48.546;-4.178;2022-09-23T02:52:50;22.88;;;13.32;;
62796;SDS011;48839;48.546;-4.178;2022-09-23T02:55:17;24.85;;;14.70;;
62796;SDS011;48839;48.546;-4.178;2022-09-23T02:57:46;25.33;;;14.73;;
62796;SDS011;48839;48.546;-4.178;2022-09-23T03:00:12;22.85;;;13.93;;
62796;SDS011;48839;48.546;-4.178;2022-09-23T03:12:45;23.20;;;14.27;;
62796;SDS011;48839;48.546;-4.178;2022-09-23T03:17:45;26.15;;;14.88;;
62796;SDS011;48839;48.546;-4.178;2022-09-23T03:20:30;24.55;;;14.73;;
62796;SDS011;48839;48.546;-4.178;2022-09-23T03:23:01;27.35;;;15.43;;
62796;SDS011;48839;48.546;-4.178;2022-09-23T03:25:30;27.27;;;15.05;;
62796;SDS011;48839;48.546;-4.178;2022-09-23T03:27:58;28.23;;;15.75;;
62796;SDS011;48839;48.546;-4.178;2022-09-23T03:30:24;28.77;;;16.25;;
62796;SDS011;48839;48.546;-4.178;2022-09-23T03:32:51;29.40;;;17.15;;
62796;SDS011;48839;48.546;-4.178;2022-09-23T03:35:18;24.55;;;15.40;;
62796;SDS011;48839;48.546;-4.178;2022-09-23T03:37:52;28.85;;;16.70;;
62796;SDS011;48839;48.546;-4.178;2022-09-23T03:40:28;28.33;;;16.33;;
62796;SDS011;48839;48.546;-4.178;2022-09-23T03:42:55;29.02;;;15.63;;
62796;SDS011;48839;48.546;-4.178;2022-09-23T03:45:23;30.88;;;17.83;;
62796;SDS011;48839;48.546;-4.178;2022-09-23T03:47:51;27.55;;;17.40;;
62796;SDS011;48839;48.546;-4.178;2022-09-23T03:50:17;29.40;;;17.00;;
62796;SDS011;48839;48.546;-4.178;2022-09-23T03:52:44;30.27;;;17.20;;
62796;SDS011;48839;48.546;-4.178;2022-09-23T03:55:11;27.88;;;16.52;;
62796;SDS011;48839;48.546;-4.178;2022-09-23T03:57:37;28.58;;;16.02;;
62796;SDS011;48839;48.546;-4.178;2022-09-23T04:00:04;30.75;;;16.13;;
62796;SDS011;48839;48.546;-4.178;2022-09-23T04:02:31;29.20;;;16.88;;
62796;SDS011;48839;48.546;-4.178;2022-09-23T04:04:57;28.20;;;15.70;;
62796;SDS011;48839;48.546;-4.178;2022-09-23T04:07:23;27.75;;;15.98;;
62796;SDS011;48839;48.546;-4.178;2022-09-23T04:09:49;29.30;;;16.17;;
62796;SDS011;48839;48.546;-4.178;2022-09-23T04:12:16;27.92;;;15.95;;
62796;SDS011;48839;48.546;-4.178;2022-09-23T04:14:42;30.98;;;17.23;;
62796;SDS011;48839;48.546;-4.178;2022-09-23T04:17:08;30.80;;;16.35;;
62796;SDS011;48839;48.546;-4.178;2022-09-23T04:19:34;33.70;;;17.63;;
62796;SDS011;48839;48.546;-4.178;2022-09-23T04:22:00;31.77;;;17.30;;
62796;SDS011;48839;48.546;-4.178;2022-09-23T04:24:26;32.30;;;16.45;;
62796;SDS011;48839;48.546;-4.178;2022-09-23T04:26:53;30.77;;;17.08;;
62796;SDS011;48839;48.546;-4.178;2022-09-23T04:29:20;28.27;;;16.55;;
62796;SDS011;48839;48.546;-4.178;2022-09-23T04:31:47;29.98;;;15.85;;
62796;SDS011;48839;48.546;-4.178;2022-09-23T04:34:13;33.05;;;16.60;;
62796;SDS011;48839;48.546;-4.178;2022-09-23T04:36:43;34.00;;;16.48;;
62796;SDS011;48839;48.546;-4.178;2022-09-23T04:39:10;29.10;;;15.52;;
62796;SDS011;48839;48.546;-4.178;2022-09-23T04:41:37;27.60;;;15.88;;
62796;SDS011;48839;48.546;-4.178;2022-09-23T04:44:03;28.60;;;15.45;;
62796;SDS011;48839;48.546;-4.178;2022-09-23T04:46:29;33.83;;;15.52;;
62796;SDS011;48839;48.546;-4.178;2022-09-23T04:48:55;30.58;;;15.88;;
62796;SDS011;48839;48.546;-4.178;2022-09-23T04:51:22;31.77;;;15.75;;
62796;SDS011;48839;48.546;-4.178;2022-09-23T04:53:49;34.08;;;16.75;;
62796;SDS011;48839;48.546;-4.178;2022-09-23T04:56:16;27.40;;;15.45;;
62796;SDS011;48839;48.546;-4.178;2022-09-23T04:58:43;34.35;;;16.25;;
62796;SDS011;48839;48.546;-4.178;2022-09-23T05:03:38;26.10;;;14.23;;
62796;SDS011;48839;48.546;-4.178;2022-09-23T05:06:04;27.15;;;14.15;;
62796;SDS011;48839;48.546;-4.178;2022-09-23T05:08:31;29.60;;;15.02;;
62796;SDS011;48839;48.546;-4.178;2022-09-23T05:10:58;27.38;;;14.38;;
62796;SDS011;48839;48.546;-4.178;2022-09-23T05:13:24;23.15;;;13.30;;
62796;SDS011;48839;48.546;-4.178;2022-09-23T05:15:57;26.70;;;13.90;;
62796;SDS011;48839;48.546;-4.178;2022-09-23T05:18:23;24.95;;;14.10;;
62796;SDS011;48839;48.546;-4.178;2022-09-23T05:20:53;26.23;;;13.73;;
62796;SDS011;48839;48.546;-4.178;2022-09-23T05:23:19;26.42;;;13.25;;
62796;SDS011;48839;48.546;-4.178;2022-09-23T05:25:45;23.13;;;13.07;;
62796;SDS011;48839;48.546;-4.178;2022-09-23T05:28:12;22.95;;;12.80;;
62796;SDS011;48839;48.546;-4.178;2022-09-23T05:30:41;22.30;;;12.82;;
62796;SDS011;48839;48.546;-4.178;2022-09-23T05:33:08;25.00;;;12.40;;
62796;SDS011;48839;48.546;-4.178;2022-09-23T05:35:35;21.35;;;11.50;;
62796;SDS011;48839;48.546;-4.178;2022-09-23T05:38:01;21.63;;;11.32;;
62796;SDS011;48839;48.546;-4.178;2022-09-23T05:40:26;17.67;;;11.38;;
62796;SDS011;48839;48.546;-4.178;2022-09-23T05:42:53;21.13;;;12.02;;
62796;SDS011;48839;48.546;-4.178;2022-09-23T05:45:19;17.15;;;10.50;;
62796;SDS011;48839;48.546;-4.178;2022-09-23T05:47:45;16.83;;;9.57;;
62796;SDS011;48839;48.546;-4.178;2022-09-23T05:50:11;18.83;;;10.57;;
62796;SDS011;48839;48.546;-4.178;2022-09-23T05:52:37;19.65;;;11.20;;
62796;SDS011;48839;48.546;-4.178;2022-09-23T05:55:03;16.48;;;9.98;;
62796;SDS011;48839;48.546;-4.178;2022-09-23T05:57:29;19.20;;;9.88;;
62796;SDS011;48839;48.546;-4.178;2022-09-23T05:59:55;14.77;;;9.02;;
62796;SDS011;48839;48.546;-4.178;2022-09-23T06:02:21;14.00;;;9.10;;
62796;SDS011;48839;48.546;-4.178;2022-09-23T06:04:47;15.25;;;9.07;;
62796;SDS011;48839;48.546;-4.178;2022-09-23T06:07:13;13.45;;;9.45;;
62796;SDS011;48839;48.546;-4.178;2022-09-23T06:09:39;16.23;;;9.73;;
62796;SDS011;48839;48.546;-4.178;2022-09-23T06:12:06;13.90;;;9.10;;
62796;SDS011;48839;48.546;-4.178;2022-09-23T06:14:32;15.70;;;9.38;;
62796;SDS011;48839;48.546;-4.178;2022-09-23T06:16:58;15.60;;;9.40;;
62796;SDS011;48839;48.546;-4.178;2022-09-23T06:19:24;15.40;;;10.88;;
62796;SDS011;48839;48.546;-4.178;2022-09-23T06:21:50;16.90;;;9.50;;
62796;SDS011;48839;48.546;-4.178;2022-09-23T06:24:16;15.38;;;9.52;;
62796;SDS011;48839;48.546;-4.178;2022-09-23T06:26:42;18.50;;;9.35;;
62796;SDS011;48839;48.546;-4.178;2022-09-23T06:29:09;14.73;;;8.68;;
62796;SDS011;48839;48.546;-4.178;2022-09-23T06:31:36;17.42;;;9.80;;
62796;SDS011;48839;48.546;-4.178;2022-09-23T06:34:04;15.68;;;9.88;;
62796;SDS011;48839;48.546;-4.178;2022-09-23T06:36:30;12.07;;;8.43;;
62796;SDS011;48839;48.546;-4.178;2022-09-23T06:38:56;14.02;;;9.25;;
62796;SDS011;48839;48.546;-4.178;2022-09-23T06:41:22;13.23;;;8.90;;
62796;SDS011;48839;48.546;-4.178;2022-09-23T06:43:48;14.93;;;8.73;;
62796;SDS011;48839;48.546;-4.178;2022-09-23T06:46:15;12.90;;;9.27;;
62796;SDS011;48839;48.546;-4.178;2022-09-23T06:48:41;12.77;;;7.72;;
62796;SDS011;48839;48.546;-4.178;2022-09-23T06:51:08;13.38;;;7.93;;
62796;SDS011;48839;48.546;-4.178;2022-09-23T06:53:35;13.43;;;7.50;;
62796;SDS011;48839;48.546;-4.178;2022-09-23T06:56:02;12.18;;;7.72;;
62796;SDS011;48839;48.546;-4.178;2022-09-23T06:58:29;15.13;;;8.57;;
62796;SDS011;48839;48.546;-4.178;2022-09-23T07:01:06;10.95;;;7.28;;
62796;SDS011;48839;48.546;-4.178;2022-09-23T07:03:32;12.13;;;7.55;;
62796;SDS011;48839;48.546;-4.178;2022-09-23T07:05:59;11.70;;;7.00;;
62796;SDS011;48839;48.546;-4.178;2022-09-23T07:08:25;11.02;;;7.13;;
62796;SDS011;48839;48.546;-4.178;2022-09-23T07:10:52;16.08;;;7.47;;
62796;SDS011;48839;48.546;-4.178;2022-09-23T07:13:19;11.23;;;6.18;;
62796;SDS011;48839;48.546;-4.178;2022-09-23T07:15:52;11.85;;;6.80;;
62796;SDS011;48839;48.546;-4.178;2022-09-23T07:18:18;10.82;;;6.35;;
62796;SDS011;48839;48.546;-4.178;2022-09-23T07:20:47;9.55;;;6.63;;
62796;SDS011;48839;48.546;-4.178;2022-09-23T07:23:14;9.30;;;6.07;;
62796;SDS011;48839;48.546;-4.178;2022-09-23T07:25:41;10.40;;;6.00;;
62796;SDS011;48839;48.546;-4.178;2022-09-23T07:28:07;9.95;;;6.88;;
62796;SDS011;48839;48.546;-4.178;2022-09-23T07:30:37;8.30;;;5.40;;
62796;SDS011;48839;48.546;-4.178;2022-09-23T07:33:03;8.00;;;5.13;;
62796;SDS011;48839;48.546;-4.178;2022-09-23T07:35:30;8.35;;;5.10;;
62796;SDS011;48839;48.546;-4.178;2022-09-23T07:37:56;7.05;;;5.32;;
62796;SDS011;48839;48.546;-4.178;2022-09-23T07:40:22;7.38;;;4.50;;
62796;SDS011;48839;48.546;-4.178;2022-09-23T07:42:48;7.40;;;5.10;;
62796;SDS011;48839;48.546;-4.178;2022-09-23T07:45:14;6.82;;;4.53;;
62796;SDS011;48839;48.546;-4.178;2022-09-23T07:47:40;5.85;;;4.35;;
62796;SDS011;48839;48.546;-4.178;2022-09-23T07:50:06;8.27;;;4.68;;
62796;SDS011;48839;48.546;-4.178;2022-09-23T07:52:35;8.38;;;5.00;;
62796;SDS011;48839;48.546;-4.178;2022-09-23T07:55:02;10.57;;;4.50;;
62796;SDS011;48839;48.546;-4.178;2022-09-23T07:57:28;10.98;;;5.07;;
62796;SDS011;48839;48.546;-4.178;2022-09-23T07:59:54;9.35;;;4.80;;
62796;SDS011;48839;48.546;-4.178;2022-09-23T08:02:21;7.55;;;5.07;;
62796;SDS011;48839;48.546;-4.178;2022-09-23T08:04:47;9.98;;;5.05;;
62796;SDS011;48839;48.546;-4.178;2022-09-23T08:07:13;6.30;;;4.50;;
62796;SDS011;48839;48.546;-4.178;2022-09-23T08:09:40;5.97;;;4.45;;
62796;SDS011;48839;48.546;-4.178;2022-09-23T08:12:07;7.78;;;4.82;;
62796;SDS011;48839;48.546;-4.178;2022-09-23T08:14:34;7.63;;;4.78;;
62796;SDS011;48839;48.546;-4.178;2022-09-23T08:17:00;8.40;;;4.88;;
62796;SDS011;48839;48.546;-4.178;2022-09-23T08:19:26;7.00;;;5.15;;
62796;SDS011;48839;48.546;-4.178;2022-09-23T08:21:52;9.45;;;5.43;;
62796;SDS011;48839;48.546;-4.178;2022-09-23T08:24:18;7.30;;;4.22;;
62796;SDS011;48839;48.546;-4.178;2022-09-23T08:26:45;7.50;;;4.75;;
62796;SDS011;48839;48.546;-4.178;2022-09-23T08:29:12;8.57;;;4.15;;
62796;SDS011;48839;48.546;-4.178;2022-09-23T08:31:38;5.93;;;4.47;;
62796;SDS011;48839;48.546;-4.178;2022-09-23T08:34:05;8.85;;;4.68;;
62796;SDS011;48839;48.546;-4.178;2022-09-23T08:36:31;7.95;;;4.72;;
62796;SDS011;48839;48.546;-4.178;2022-09-23T08:38:57;7.50;;;4.57;;
62796;SDS011;48839;48.546;-4.178;2022-09-23T08:43:51;6.93;;;5.05;;
62796;SDS011;48839;48.546;-4.178;2022-09-23T08:46:21;9.27;;;5.63;;
62796;SDS011;48839;48.546;-4.178;2022-09-23T08:48:49;7.68;;;5.25;;
62796;SDS011;48839;48.546;-4.178;2022-09-23T08:51:21;9.93;;;5.85;;
62796;SDS011;48839;48.546;-4.178;2022-09-23T08:53:47;6.60;;;4.70;;
62796;SDS011;48839;48.546;-4.178;2022-09-23T08:56:15;6.43;;;4.40;;
62796;SDS011;48839;48.546;-4.178;2022-09-23T09:04:02;7.15;;;4.75;;
62796;SDS011;48839;48.546;-4.178;2022-09-23T09:09:28;7.50;;;4.15;;
62796;SDS011;48839;48.546;-4.178;2022-09-23T09:12:00;6.03;;;3.92;;
62796;SDS011;48839;48.546;-4.178;2022-09-23T09:16:59;5.75;;;4.15;;
62796;SDS011;48839;48.546;-4.178;2022-09-23T09:22:09;6.80;;;4.40;;
62796;SDS011;48839;48.546;-4.178;2022-09-23T09:24:38;6.07;;;4.38;;
62796;SDS011;48839;48.546;-4.178;2022-09-23T09:27:09;7.35;;;4.80;;
62796;SDS011;48839;48.546;-4.178;2022-09-23T09:29:37;6.70;;;4.70;;
62796;SDS011;48839;48.546;-4.178;2022-09-23T09:32:11;5.70;;;4.20;;
62796;SDS011;48839;48.546;-4.178;2022-09-23T09:34:46;5.78;;;3.75;;
62796;SDS011;48839;48.546;-4.178;2022-09-23T09:37:18;6.97;;;4.25;;
62796;SDS011;48839;48.546;-4.178;2022-09-23T09:39:45;5.07;;;4.00;;
62796;SDS011;48839;48.546;-4.178;2022-09-23T09:42:16;5.75;;;3.42;;
62796;SDS011;48839;48.546;-4.178;2022-09-23T09:45:03;5.55;;;3.53;;
62796;SDS011;48839;48.546;-4.178;2022-09-23T09:47:43;5.07;;;3.60;;
62796;SDS011;48839;48.546;-4.178;2022-09-23T09:50:13;3.95;;;3.30;;
62796;SDS011;48839;48.546;-4.178;2022-09-23T09:52:44;5.28;;;3.25;;
62796;SDS011;48839;48.546;-4.178;2022-09-23T09:57:56;5.72;;;3.33;;
62796;SDS011;48839;48.546;-4.178;2022-09-23T10:03:07;4.60;;;3.03;;
62796;SDS011;48839;48.546;-4.178;2022-09-23T10:10:50;7.47;;;4.05;;
62796;SDS011;48839;48.546;-4.178;2022-09-23T10:13:20;5.47;;;3.67;;
62796;SDS011;48839;48.546;-4.178;2022-09-23T10:15:48;6.03;;;4.03;;
62796;SDS011;48839;48.546;-4.178;2022-09-23T10:18:17;6.45;;;4.35;;
62796;SDS011;48839;48.546;-4.178;2022-09-23T10:20:43;6.47;;;4.60;;
62796;SDS011;48839;48.546;-4.178;2022-09-23T10:23:14;6.60;;;4.10;;
62796;SDS011;48839;48.546;-4.178;2022-09-23T10:25:41;5.20;;;3.80;;
62796;SDS011;48839;48.546;-4.178;2022-09-23T10:31:07;6.68;;;4.05;;
62796;SDS011;48839;48.546;-4.178;2022-09-23T10:33:38;6.90;;;3.92;;
62796;SDS011;48839;48.546;-4.178;2022-09-23T10:36:07;5.97;;;3.85;;
62796;SDS011;48839;48.546;-4.178;2022-09-23T10:38:33;5.18;;;3.60;;
62796;SDS011;48839;48.546;-4.178;2022-09-23T10:40:59;5.40;;;3.40;;
62796;SDS011;48839;48.546;-4.178;2022-09-23T10:49:40;4.30;;;3.33;;
62796;SDS011;48839;48.546;-4.178;2022-09-23T10:55:06;4.63;;;3.25;;
62796;SDS011;48839;48.546;-4.178;2022-09-23T11:13:25;4.85;;;3.83;;
62796;SDS011;48839;48.546;-4.178;2022-09-23T11:15:58;3.90;;;3.35;;
62796;SDS011;48839;48.546;-4.178;2022-09-23T11:24:19;4.95;;;2.55;;
62796;SDS011;48839;48.546;-4.178;2022-09-23T11:26:53;2.60;;;2.40;;
62796;SDS011;48839;48.546;-4.178;2022-09-23T11:32:10;3.60;;;2.60;;
62796;SDS011;48839;48.546;-4.178;2022-09-23T11:37:20;2.70;;;2.50;;
62796;SDS011;48839;48.546;-4.178;2022-09-23T11:42:34;5.00;;;2.85;;
62796;SDS011;48839;48.546;-4.178;2022-09-23T11:45:05;3.45;;;2.90;;
62796;SDS011;48839;48.546;-4.178;2022-09-23T11:47:38;3.40;;;2.72;;
62796;SDS011;48839;48.546;-4.178;2022-09-23T11:52:50;3.30;;;3.00;;
62796;SDS011;48839;48.546;-4.178;2022-09-23T11:55:24;3.38;;;2.90;;
62796;SDS011;48839;48.546;-4.178;2022-09-23T12:00:24;4.55;;;2.90;;
62796;SDS011;48839;48.546;-4.178;2022-09-23T12:05:18;3.38;;;2.50;;
62796;SDS011;48839;48.546;-4.178;2022-09-23T12:10:19;6.38;;;2.50;;
62796;SDS011;48839;48.546;-4.178;2022-09-23T12:15:41;5.03;;;2.55;;
62796;SDS011;48839;48.546;-4.178;2022-09-23T12:18:20;3.47;;;2.42;;
62796;SDS011;48839;48.546;-4.178;2022-09-23T12:26:11;131.18;;;67.50;;
62796;SDS011;48839;48.546;-4.178;2022-09-23T12:28:41;172.98;;;88.80;;
62796;SDS011;48839;48.546;-4.178;2022-09-23T12:31:19;92.82;;;40.97;;
62796;SDS011;48839;48.546;-4.178;2022-09-23T12:33:50;74.80;;;31.98;;
62796;SDS011;48839;48.546;-4.178;2022-09-23T12:36:23;265.98;;;124.47;;
62796;SDS011;48839;48.546;-4.178;2022-09-23T12:39:34;106.30;;;53.38;;
62796;SDS011;48839;48.546;-4.178;2022-09-23T12:41:40;56.67;;;29.25;;
62796;SDS011;48839;48.546;-4.178;2022-09-23T12:46:37;73.25;;;39.85;;
62796;SDS011;48839;48.546;-4.178;2022-09-23T12:49:04;68.47;;;34.28;;
62796;SDS011;48839;48.546;-4.178;2022-09-23T12:51:34;108.68;;;61.45;;
62796;SDS011;48839;48.546;-4.178;2022-09-23T13:01:36;4.63;;;3.47;;
62796;SDS011;48839;48.546;-4.178;2022-09-23T13:04:03;7.50;;;4.10;;
62796;SDS011;48839;48.546;-4.178;2022-09-23T13:07:00;46.22;;;23.00;;
62796;SDS011;48839;48.546;-4.178;2022-09-23T13:09:29;17.38;;;8.88;;
62796;SDS011;48839;48.546;-4.178;2022-09-23T13:11:59;42.97;;;19.83;;
62796;SDS011;48839;48.546;-4.178;2022-09-23T13:14:26;24.88;;;11.75;;
62796;SDS011;48839;48.546;-4.178;2022-09-23T13:16:53;12.73;;;7.22;;
62796;SDS011;48839;48.546;-4.178;2022-09-23T13:33:09;7.30;;;4.43;;
62796;SDS011;48839;48.546;-4.178;2022-09-23T13:37:42;6.38;;;4.25;;
62796;SDS011;48839;48.546;-4.178;2022-09-23T13:42:58;7.13;;;3.58;;
62796;SDS011;48839;48.546;-4.178;2022-09-23T13:45:25;4.63;;;2.53;;
62796;SDS011;48839;48.546;-4.178;2022-09-23T13:47:52;3.85;;;1.67;;
62796;SDS011;48839;48.546;-4.178;2022-09-23T13:50:20;3.92;;;2.15;;
62796;SDS011;48839;48.546;-4.178;2022-09-23T13:52:50;2.55;;;1.95;;
62796;SDS011;48839;48.546;-4.178;2022-09-23T13:55:33;2.78;;;1.60;;
62796;SDS011;48839;48.546;-4.178;2022-09-23T13:58:04;1.60;;;1.50;;
62796;SDS011;48839;48.546;-4.178;2022-09-23T14:00:35;2.80;;;1.30;;
62796;SDS011;48839;48.546;-4.178;2022-09-23T14:03:02;1.67;;;1.50;;
62796;SDS011;48839;48.546;-4.178;2022-09-23T14:05:32;2.90;;;1.85;;
62796;SDS011;48839;48.546;-4.178;2022-09-23T14:07:59;1.67;;;1.45;;
62796;SDS011;48839;48.546;-4.178;2022-09-23T14:10:25;1.70;;;1.58;;
62796;SDS011;48839;48.546;-4.178;2022-09-23T14:12:52;4.28;;;1.80;;
62796;SDS011;48839;48.546;-4.178;2022-09-23T14:15:19;5.07;;;1.90;;
62796;SDS011;48839;48.546;-4.178;2022-09-23T14:17:49;2.30;;;2.10;;
62796;SDS011;48839;48.546;-4.178;2022-09-23T14:20:16;6.85;;;3.35;;
62796;SDS011;48839;48.546;-4.178;2022-09-23T14:22:44;3.38;;;1.60;;
62796;SDS011;48839;48.546;-4.178;2022-09-23T14:25:14;2.60;;;2.08;;
62796;SDS011;48839;48.546;-4.178;2022-09-23T14:27:41;5.10;;;2.08;;
62796;SDS011;48839;48.546;-4.178;2022-09-23T14:30:16;2.47;;;1.20;;
62796;SDS011;48839;48.546;-4.178;2022-09-23T14:32:43;1.73;;;1.52;;
62796;SDS011;48839;48.546;-4.178;2022-09-23T14:37:41;2.25;;;1.70;;
62796;SDS011;48839;48.546;-4.178;2022-09-23T14:40:27;2.88;;;1.23;;
62796;SDS011;48839;48.546;-4.178;2022-09-23T14:42:57;5.15;;;1.67;;
62796;SDS011;48839;48.546;-4.178;2022-09-23T14:45:25;1.85;;;1.27;;
62796;SDS011;48839;48.546;-4.178;2022-09-23T14:47:59;1.65;;;1.00;;
62796;SDS011;48839;48.546;-4.178;2022-09-23T14:50:26;2.70;;;1.30;;
62796;SDS011;48839;48.546;-4.178;2022-09-23T14:55:46;1.63;;;1.52;;
62796;SDS011;48839;48.546;-4.178;2022-09-23T14:58:16;1.88;;;1.35;;
62796;SDS011;48839;48.546;-4.178;2022-09-23T15:00:58;2.15;;;1.70;;
62796;SDS011;48839;48.546;-4.178;2022-09-23T15:03:25;3.55;;;2.00;;
62796;SDS011;48839;48.546;-4.178;2022-09-23T15:05:55;4.45;;;2.45;;
62796;SDS011;48839;48.546;-4.178;2022-09-23T15:08:24;6.32;;;3.15;;
62796;SDS011;48839;48.546;-4.178;2022-09-23T15:10:51;5.72;;;3.72;;
62796;SDS011;48839;48.546;-4.178;2022-09-23T15:13:21;6.03;;;3.20;;
62796;SDS011;48839;48.546;-4.178;2022-09-23T15:15:50;3.33;;;2.40;;
62796;SDS011;48839;48.546;-4.178;2022-09-23T15:18:19;4.03;;;2.38;;
62796;SDS011;48839;48.546;-4.178;2022-09-23T15:21:31;6.28;;;3.03;;
62796;SDS011;48839;48.546;-4.178;2022-09-23T15:23:43;3.92;;;2.80;;
62796;SDS011;48839;48.546;-4.178;2022-09-23T15:28:41;4.38;;;2.60;;
62796;SDS011;48839;48.546;-4.178;2022-09-23T15:31:15;4.35;;;2.83;;
62796;SDS011;48839;48.546;-4.178;2022-09-23T15:33:44;5.65;;;3.20;;
62796;SDS011;48839;48.546;-4.178;2022-09-23T15:36:32;5.25;;;3.20;;
62796;SDS011;48839;48.546;-4.178;2022-09-23T15:39:02;3.92;;;3.30;;
62796;SDS011;48839;48.546;-4.178;2022-09-23T15:41:29;5.75;;;3.00;;
62796;SDS011;48839;48.546;-4.178;2022-09-23T15:43:57;4.07;;;3.17;;
62796;SDS011;48839;48.546;-4.178;2022-09-23T15:46:24;5.45;;;3.10;;
62796;SDS011;48839;48.546;-4.178;2022-09-23T15:48:55;4.32;;;2.55;;
62796;SDS011;48839;48.546;-4.178;2022-09-23T15:51:22;10.40;;;3.08;;
62796;SDS011;48839;48.546;-4.178;2022-09-23T15:53:48;7.00;;;2.50;;
62796;SDS011;48839;48.546;-4.178;2022-09-23T15:56:14;6.95;;;2.67;;
62796;SDS011;48839;48.546;-4.178;2022-09-23T15:58:40;5.07;;;2.65;;
62796;SDS011;48839;48.546;-4.178;2022-09-23T16:01:08;4.80;;;2.67;;
62796;SDS011;48839;48.546;-4.178;2022-09-23T16:03:37;4.53;;;2.67;;
62796;SDS011;48839;48.546;-4.178;2022-09-23T16:06:03;3.53;;;2.85;;
62796;SDS011;48839;48.546;-4.178;2022-09-23T16:08:30;4.18;;;2.70;;
62796;SDS011;48839;48.546;-4.178;2022-09-23T16:10:56;4.45;;;2.63;;
62796;SDS011;48839;48.546;-4.178;2022-09-23T16:13:23;4.15;;;3.00;;
62796;SDS011;48839;48.546;-4.178;2022-09-23T16:15:49;4.05;;;3.50;;
62796;SDS011;48839;48.546;-4.178;2022-09-23T16:18:15;7.45;;;4.80;;
62796;SDS011;48839;48.546;-4.178;2022-09-23T16:20:41;6.68;;;4.82;;
62796;SDS011;48839;48.546;-4.178;2022-09-23T16:25:37;7.97;;;4.18;;
62796;SDS011;48839;48.546;-4.178;2022-09-23T16:28:03;8.25;;;4.65;;
62796;SDS011;48839;48.546;-4.178;2022-09-23T16:30:30;7.30;;;5.13;;
62796;SDS011;48839;48.546;-4.178;2022-09-23T16:32:57;5.78;;;3.95;;
62796;SDS011;48839;48.546;-4.178;2022-09-23T16:35:25;8.00;;;4.65;;
62796;SDS011;48839;48.546;-4.178;2022-09-23T16:37:51;7.22;;;4.22;;
62796;SDS011;48839;48.546;-4.178;2022-09-23T16:40:19;7.55;;;5.05;;
62796;SDS011;48839;48.546;-4.178;2022-09-23T16:42:46;7.35;;;4.93;;
62796;SDS011;48839;48.546;-4.178;2022-09-23T16:45:12;7.93;;;4.90;;
62796;SDS011;48839;48.546;-4.178;2022-09-23T16:47:44;6.40;;;4.90;;
62796;SDS011;48839;48.546;-4.178;2022-09-23T16:50:11;7.80;;;5.15;;
62796;SDS011;48839;48.546;-4.178;2022-09-23T16:52:37;9.85;;;5.38;;
62796;SDS011;48839;48.546;-4.178;2022-09-23T16:55:03;8.32;;;5.97;;
62796;SDS011;48839;48.546;-4.178;2022-09-23T16:57:29;8.65;;;6.30;;
62796;SDS011;48839;48.546;-4.178;2022-09-23T16:59:55;9.05;;;6.15;;
62796;SDS011;48839;48.546;-4.178;2022-09-23T17:02:40;13.38;;;5.88;;
62796;SDS011;48839;48.546;-4.178;2022-09-23T17:05:25;9.77;;;6.07;;
62796;SDS011;48839;48.546;-4.178;2022-09-23T17:07:51;9.25;;;6.40;;
62796;SDS011;48839;48.546;-4.178;2022-09-23T17:10:18;9.82;;;6.93;;
62796;SDS011;48839;48.546;-4.178;2022-09-23T17:12:45;13.05;;;7.90;;
62796;SDS011;48839;48.546;-4.178;2022-09-23T17:15:11;10.55;;;7.28;;
62796;SDS011;48839;48.546;-4.178;2022-09-23T17:17:37;11.15;;;7.55;;
62796;SDS011;48839;48.546;-4.178;2022-09-23T17:20:04;15.27;;;7.50;;
62796;SDS011;48839;48.546;-4.178;2022-09-23T17:22:31;11.18;;;7.50;;
62796;SDS011;48839;48.546;-4.178;2022-09-23T17:24:58;12.40;;;7.55;;
62796;SDS011;48839;48.546;-4.178;2022-09-23T17:27:26;16.13;;;7.68;;
62796;SDS011;48839;48.546;-4.178;2022-09-23T17:29:52;10.07;;;7.13;;
62796;SDS011;48839;48.546;-4.178;2022-09-23T17:32:18;14.05;;;7.15;;
62796;SDS011;48839;48.546;-4.178;2022-09-23T17:34:44;10.85;;;6.78;;
62796;SDS011;48839;48.546;-4.178;2022-09-23T17:37:10;9.48;;;6.95;;
62796;SDS011;48839;48.546;-4.178;2022-09-23T17:39:36;9.93;;;7.25;;
62796;SDS011;48839;48.546;-4.178;2022-09-23T17:42:02;10.27;;;7.25;;